AUA438W LOWI-EDDF
Flight info
| Callsign | AUA438W |
|---|---|
| Flight time | N/A |
| Altitude | 36000 |
| Route | KOGOL M726 ERNAS T161 DEBHI SPESA5B |
| Aircraft | A320/M-SDE3FGHIRWY/LB1 |
Departure
| Time | 2026-05-06 13:24 |
|---|---|
| Airport | Innsbruck Airport (LOWI) |
Arrival
| Time | N/A |
|---|---|
| Airport | Frankfurt Main Airport (EDDF) |
| Time | Latitude | Longitude | Altitude | Speed | Heading |
|---|---|---|---|---|---|
| 2026-05-06 13:04 | 47.25831 | 11.35110 | 1899 ft | 0 kts | 170° |
| 2026-05-06 13:15 | 47.25832 | 11.35109 | 1899 ft | 2 kts | 170° |
| 2026-05-06 13:15 | 47.25858 | 11.35107 | 1888 ft | 4 kts | 190° |
| 2026-05-06 13:15 | 47.25880 | 11.35121 | 1886 ft | 4 kts | 234° |
| 2026-05-06 13:16 | 47.25887 | 11.35141 | 1886 ft | 1 kts | 261° |
| 2026-05-06 13:16 | 47.25887 | 11.35144 | 1886 ft | 0 kts | 261° |
| 2026-05-06 13:18 | 47.25886 | 11.35136 | 1886 ft | 3 kts | 261° |
| 2026-05-06 13:18 | 47.25880 | 11.35079 | 1894 ft | 8 kts | 261° |
| 2026-05-06 13:18 | 47.25869 | 11.34968 | 1899 ft | 13 kts | 262° |
| 2026-05-06 13:19 | 47.25857 | 11.34847 | 1899 ft | 12 kts | 262° |
| 2026-05-06 13:19 | 47.25840 | 11.34691 | 1897 ft | 17 kts | 261° |
| 2026-05-06 13:19 | 47.25821 | 11.34527 | 1887 ft | 15 kts | 261° |
| 2026-05-06 13:19 | 47.25801 | 11.34344 | 1896 ft | 23 kts | 261° |
| 2026-05-06 13:20 | 47.25774 | 11.34102 | 1896 ft | 23 kts | 261° |
| 2026-05-06 13:20 | 47.25781 | 11.33950 | 1890 ft | 21 kts | 290° |
| 2026-05-06 13:20 | 47.25864 | 11.33769 | 1901 ft | 12 kts | 305° |
| 2026-05-06 13:20 | 47.25894 | 11.33706 | 1904 ft | 11 kts | 305° |
| 2026-05-06 13:21 | 47.25931 | 11.33585 | 1905 ft | 16 kts | 271° |
| 2026-05-06 13:21 | 47.25912 | 11.33396 | 1902 ft | 22 kts | 261° |
| 2026-05-06 13:21 | 47.25878 | 11.33206 | 1902 ft | 16 kts | 226° |
| 2026-05-06 13:21 | 47.25880 | 11.33121 | 1901 ft | 12 kts | 26° |
| 2026-05-06 13:22 | 47.25895 | 11.33221 | 1897 ft | 5 kts | 81° |
| 2026-05-06 13:22 | 47.25895 | 11.33223 | 1897 ft | 0 kts | 81° |
| 2026-05-06 13:23 | 47.25895 | 11.33224 | 1897 ft | 0 kts | 81° |
| 2026-05-06 13:23 | 47.25907 | 11.33337 | 1893 ft | 37 kts | 81° |
| 2026-05-06 13:23 | 47.25988 | 11.34127 | 1904 ft | 116 kts | 80° |
| 2026-05-06 13:23 | 47.26164 | 11.35590 | 2051 ft | 162 kts | 84° |
| 2026-05-06 13:24 | 47.26383 | 11.37216 | 2931 ft | 166 kts | 84° |
| 2026-05-06 13:24 | 47.26601 | 11.38938 | 3719 ft | 179 kts | 82° |
| 2026-05-06 13:24 | 47.26860 | 11.40850 | 4337 ft | 192 kts | 78° |
| 2026-05-06 13:24 | 47.27080 | 11.42847 | 4738 ft | 208 kts | 83° |
| 2026-05-06 13:25 | 47.27348 | 11.45071 | 5005 ft | 233 kts | 76° |
| 2026-05-06 13:25 | 47.27849 | 11.47475 | 5399 ft | 258 kts | 71° |
| 2026-05-06 13:25 | 47.28518 | 11.50056 | 5903 ft | 279 kts | 69° |
| 2026-05-06 13:25 | 47.29275 | 11.52729 | 6662 ft | 288 kts | 69° |
| 2026-05-06 13:26 | 47.30074 | 11.55469 | 7471 ft | 293 kts | 69° |
| 2026-05-06 13:26 | 47.30900 | 11.58291 | 8327 ft | 299 kts | 70° |
| 2026-05-06 13:26 | 47.31726 | 11.61134 | 9116 ft | 306 kts | 71° |
| 2026-05-06 13:26 | 47.32576 | 11.64059 | 9545 ft | 312 kts | 71° |
| 2026-05-06 13:27 | 47.33439 | 11.67026 | 10276 ft | 321 kts | 71° |
| 2026-05-06 13:27 | 47.34344 | 11.70170 | 10576 ft | 345 kts | 71° |
| 2026-05-06 13:27 | 47.35307 | 11.73541 | 10946 ft | 365 kts | 71° |
| 2026-05-06 13:27 | 47.36308 | 11.77031 | 11582 ft | 375 kts | 70° |
| 2026-05-06 13:28 | 47.37334 | 11.80604 | 12139 ft | 382 kts | 71° |
| 2026-05-06 13:28 | 47.38375 | 11.84231 | 12760 ft | 387 kts | 71° |
| 2026-05-06 13:28 | 47.39768 | 11.87677 | 13457 ft | 399 kts | 52° |
| 2026-05-06 13:28 | 47.41867 | 11.90384 | 14098 ft | 405 kts | 31° |
| 2026-05-06 13:29 | 47.44475 | 11.91950 | 14695 ft | 407 kts | 10° |
| 2026-05-06 13:29 | 47.47281 | 11.92154 | 15261 ft | 405 kts | 348° |
| 2026-05-06 13:29 | 47.49950 | 11.91010 | 15849 ft | 398 kts | 328° |
| 2026-05-06 13:29 | 47.52201 | 11.88714 | 16423 ft | 390 kts | 310° |
| 2026-05-06 13:30 | 47.53814 | 11.85566 | 17030 ft | 380 kts | 291° |
| 2026-05-06 13:30 | 47.54714 | 11.81947 | 17618 ft | 373 kts | 278° |
| 2026-05-06 13:30 | 47.55379 | 11.78231 | 18212 ft | 373 kts | 277° |
| 2026-05-06 13:30 | 47.56049 | 11.74492 | 18634 ft | 378 kts | 279° |
| 2026-05-06 13:31 | 47.56726 | 11.70717 | 19217 ft | 381 kts | 279° |
| 2026-05-06 13:31 | 47.57408 | 11.66916 | 19764 ft | 383 kts | 279° |
| 2026-05-06 13:31 | 47.58095 | 11.63086 | 20386 ft | 385 kts | 278° |
| 2026-05-06 13:31 | 47.58784 | 11.59249 | 20956 ft | 387 kts | 279° |
| 2026-05-06 13:32 | 47.59480 | 11.55377 | 21518 ft | 390 kts | 279° |
| 2026-05-06 13:32 | 47.60191 | 11.51491 | 22045 ft | 393 kts | 281° |
| 2026-05-06 13:32 | 47.61297 | 11.47725 | 22534 ft | 406 kts | 294° |
| 2026-05-06 13:32 | 47.63011 | 11.44329 | 23050 ft | 419 kts | 307° |
| 2026-05-06 13:33 | 47.65294 | 11.41536 | 23500 ft | 433 kts | 322° |
| 2026-05-06 13:33 | 47.68056 | 11.39601 | 23916 ft | 448 kts | 337° |
| 2026-05-06 13:33 | 47.71203 | 11.38713 | 24244 ft | 460 kts | 351° |
| 2026-05-06 13:33 | 47.74355 | 11.38288 | 24586 ft | 463 kts | 351° |
| 2026-05-06 13:34 | 47.77616 | 11.37856 | 24946 ft | 465 kts | 351° |
| 2026-05-06 13:34 | 47.80848 | 11.37434 | 25299 ft | 468 kts | 350° |
| 2026-05-06 13:34 | 47.84095 | 11.37007 | 25688 ft | 470 kts | 350° |
| 2026-05-06 13:34 | 47.87371 | 11.36585 | 26073 ft | 474 kts | 351° |
| 2026-05-06 13:35 | 47.90672 | 11.36239 | 26432 ft | 477 kts | 352° |
| 2026-05-06 13:35 | 47.93991 | 11.35960 | 26767 ft | 480 kts | 352° |
| 2026-05-06 13:35 | 47.97337 | 11.35720 | 27094 ft | 482 kts | 353° |
| 2026-05-06 13:35 | 48.00702 | 11.35490 | 27412 ft | 485 kts | 353° |
| 2026-05-06 13:36 | 48.04078 | 11.35246 | 27717 ft | 487 kts | 352° |
| 2026-05-06 13:36 | 48.07462 | 11.34960 | 28017 ft | 488 kts | 351° |
| 2026-05-06 13:36 | 48.10848 | 11.34496 | 28314 ft | 489 kts | 348° |
| 2026-05-06 13:36 | 48.14220 | 11.33861 | 28597 ft | 489 kts | 347° |
| 2026-05-06 13:37 | 48.17592 | 11.33120 | 28864 ft | 491 kts | 346° |
| 2026-05-06 13:37 | 48.20974 | 11.32339 | 29124 ft | 492 kts | 346° |
| 2026-05-06 13:37 | 48.24369 | 11.31575 | 29375 ft | 495 kts | 346° |
| 2026-05-06 13:37 | 48.27790 | 11.30856 | 29621 ft | 497 kts | 347° |
| 2026-05-06 13:38 | 48.31230 | 11.30243 | 29907 ft | 498 kts | 348° |
| 2026-05-06 13:38 | 48.34678 | 11.29720 | 30199 ft | 498 kts | 349° |
| 2026-05-06 13:38 | 48.38129 | 11.29241 | 30487 ft | 498 kts | 349° |
| 2026-05-06 13:38 | 48.41575 | 11.28767 | 30775 ft | 497 kts | 349° |
| 2026-05-06 13:39 | 48.45015 | 11.28271 | 31061 ft | 496 kts | 348° |
| 2026-05-06 13:39 | 48.48447 | 11.27744 | 31396 ft | 495 kts | 348° |
| 2026-05-06 13:39 | 48.51872 | 11.27196 | 31701 ft | 494 kts | 348° |
| 2026-05-06 13:39 | 48.55281 | 11.26644 | 32040 ft | 492 kts | 348° |
| 2026-05-06 13:40 | 48.58677 | 11.26092 | 32364 ft | 490 kts | 348° |
| 2026-05-06 13:40 | 48.62067 | 11.25541 | 32677 ft | 489 kts | 348° |
| 2026-05-06 13:40 | 48.65452 | 11.24994 | 32990 ft | 488 kts | 348° |
| 2026-05-06 13:40 | 48.68827 | 11.24454 | 33268 ft | 487 kts | 348° |
| 2026-05-06 13:41 | 48.72243 | 11.23910 | 33569 ft | 487 kts | 348° |
| 2026-05-06 13:41 | 48.75611 | 11.23371 | 33861 ft | 486 kts | 348° |
| 2026-05-06 13:41 | 48.78950 | 11.22730 | 34135 ft | 480 kts | 343° |
| 2026-05-06 13:41 | 48.82150 | 11.21447 | 34393 ft | 472 kts | 334° |
| 2026-05-06 13:42 | 48.85134 | 11.19490 | 34624 ft | 464 kts | 325° |
| 2026-05-06 13:42 | 48.87851 | 11.16933 | 34846 ft | 456 kts | 316° |
| 2026-05-06 13:42 | 48.90263 | 11.13876 | 35048 ft | 450 kts | 310° |
| 2026-05-06 13:42 | 48.92569 | 11.10645 | 35253 ft | 450 kts | 310° |
| 2026-05-06 13:43 | 48.94872 | 11.07429 | 35448 ft | 451 kts | 311° |
| 2026-05-06 13:43 | 48.97182 | 11.04211 | 35676 ft | 451 kts | 311° |
| 2026-05-06 13:43 | 48.99500 | 11.00976 | 35777 ft | 454 kts | 311° |
| 2026-05-06 13:44 | 49.04158 | 10.94444 | 35815 ft | 456 kts | 311° |
| 2026-05-06 13:44 | 49.08829 | 10.87874 | 35814 ft | 459 kts | 311° |
| 2026-05-06 13:45 | 49.13550 | 10.81200 | 35830 ft | 466 kts | 311° |
| 2026-05-06 13:45 | 49.20709 | 10.71000 | 35830 ft | 470 kts | 310° |
| 2026-05-06 13:46 | 49.25310 | 10.63910 | 35791 ft | 469 kts | 308° |
| 2026-05-06 13:46 | 49.29790 | 10.56662 | 35793 ft | 468 kts | 308° |
| 2026-05-06 13:47 | 49.34279 | 10.49431 | 35801 ft | 469 kts | 308° |
| 2026-05-06 13:47 | 49.38323 | 10.41705 | 35794 ft | 462 kts | 300° |
| 2026-05-06 13:48 | 49.42050 | 10.33567 | 35796 ft | 463 kts | 300° |
| 2026-05-06 13:48 | 49.45744 | 10.25467 | 35830 ft | 463 kts | 300° |
| 2026-05-06 13:49 | 49.49425 | 10.17345 | 35826 ft | 463 kts | 299° |
| 2026-05-06 13:49 | 49.53096 | 10.09215 | 35837 ft | 463 kts | 300° |
| 2026-05-06 13:50 | 49.54938 | 10.05139 | 35449 ft | 465 kts | 300° |
| 2026-05-06 13:50 | 49.56773 | 10.01068 | 35176 ft | 462 kts | 300° |
| 2026-05-06 13:50 | 49.58604 | 9.96997 | 34933 ft | 462 kts | 299° |
| 2026-05-06 13:50 | 49.60429 | 9.92931 | 34688 ft | 462 kts | 299° |
| 2026-05-06 13:51 | 49.62254 | 9.88858 | 34471 ft | 462 kts | 300° |
| 2026-05-06 13:51 | 49.64082 | 9.84776 | 34232 ft | 462 kts | 300° |
| 2026-05-06 13:51 | 49.65907 | 9.80698 | 33999 ft | 462 kts | 300° |
| 2026-05-06 13:51 | 49.67732 | 9.76619 | 33758 ft | 461 kts | 299° |
| 2026-05-06 13:52 | 49.69554 | 9.72543 | 33482 ft | 462 kts | 299° |
| 2026-05-06 13:52 | 49.71377 | 9.68448 | 33204 ft | 463 kts | 299° |
| 2026-05-06 13:52 | 49.72426 | 9.66082 | 33046 ft | 463 kts | 299° |